sensor_id;sensor_type;location;lat;lon;timestamp;pressure;altitude;pressure_sealevel;temperature;humidity
3250;BME280;1637;42.020;23.992;2023-01-20T00:02:17;91790.44;;;9.71;100.00
3250;BME280;1637;42.020;23.992;2023-01-20T00:04:44;91775.88;;;9.72;100.00
3250;BME280;1637;42.020;23.992;2023-01-20T00:07:11;91760.50;;;9.59;100.00
3250;BME280;1637;42.020;23.992;2023-01-20T00:09:37;91781.56;;;9.74;100.00
3250;BME280;1637;42.020;23.992;2023-01-20T00:12:04;91793.16;;;9.83;100.00
3250;BME280;1637;42.020;23.992;2023-01-20T00:14:31;91798.44;;;9.71;99.77
3250;BME280;1637;42.020;23.992;2023-01-20T00:16:58;91804.72;;;9.64;100.00
3250;BME280;1637;42.020;23.992;2023-01-20T00:19:27;91812.88;;;9.89;98.56
3250;BME280;1637;42.020;23.992;2023-01-20T00:21:53;91824.00;;;9.88;99.82
3250;BME280;1637;42.020;23.992;2023-01-20T00:24:20;91810.81;;;9.64;100.00
3250;BME280;1637;42.020;23.992;2023-01-20T00:26:47;91817.31;;;9.63;100.00
3250;BME280;1637;42.020;23.992;2023-01-20T00:29:14;91831.75;;;9.34;100.00
3250;BME280;1637;42.020;23.992;2023-01-20T00:31:41;91848.16;;;9.52;100.00
3250;BME280;1637;42.020;23.992;2023-01-20T00:34:08;91864.25;;;9.48;100.00
3250;BME280;1637;42.020;23.992;2023-01-20T00:36:37;91885.34;;;9.26;100.00
3250;BME280;1637;42.020;23.992;2023-01-20T00:39:04;91908.59;;;9.10;100.00
3250;BME280;1637;42.020;23.992;2023-01-20T00:41:31;91910.03;;;9.14;100.00
3250;BME280;1637;42.020;23.992;2023-01-20T00:43:57;91925.56;;;9.00;100.00
3250;BME280;1637;42.020;23.992;2023-01-20T00:46:25;91921.25;;;9.06;100.00
3250;BME280;1637;42.020;23.992;2023-01-20T00:48:51;91933.47;;;9.07;100.00
3250;BME280;1637;42.020;23.992;2023-01-20T00:51:19;91942.00;;;8.98;100.00
3250;BME280;1637;42.020;23.992;2023-01-20T00:53:47;91941.88;;;9.05;100.00
3250;BME280;1637;42.020;23.992;2023-01-20T00:56:14;91936.88;;;8.87;100.00
3250;BME280;1637;42.020;23.992;2023-01-20T00:58:42;91949.31;;;8.74;100.00
3250;BME280;1637;42.020;23.992;2023-01-20T01:01:09;91935.69;;;8.69;99.44
3250;BME280;1637;42.020;23.992;2023-01-20T01:03:36;91933.56;;;8.80;100.00
3250;BME280;1637;42.020;23.992;2023-01-20T01:06:09;91934.03;;;8.75;100.00
3250;BME280;1637;42.020;23.992;2023-01-20T01:08:36;91926.72;;;8.79;100.00
3250;BME280;1637;42.020;23.992;2023-01-20T01:11:05;91929.66;;;8.65;100.00
3250;BME280;1637;42.020;23.992;2023-01-20T01:13:32;91904.91;;;8.64;100.00
3250;BME280;1637;42.020;23.992;2023-01-20T01:16:00;91902.56;;;8.66;100.00
3250;BME280;1637;42.020;23.992;2023-01-20T01:18:26;91884.34;;;8.41;100.00
3250;BME280;1637;42.020;23.992;2023-01-20T01:20:53;91922.53;;;8.58;100.00
3250;BME280;1637;42.020;23.992;2023-01-20T01:23:20;91924.66;;;8.47;100.00
3250;BME280;1637;42.020;23.992;2023-01-20T01:25:47;91922.75;;;8.67;100.00
3250;BME280;1637;42.020;23.992;2023-01-20T01:28:15;91907.97;;;8.82;100.00
3250;BME280;1637;42.020;23.992;2023-01-20T01:30:42;91902.91;;;8.88;100.00
3250;BME280;1637;42.020;23.992;2023-01-20T01:33:09;91904.91;;;8.84;100.00
3250;BME280;1637;42.020;23.992;2023-01-20T01:35:35;91919.88;;;8.58;100.00
3250;BME280;1637;42.020;23.992;2023-01-20T01:38:02;91915.72;;;8.10;100.00
3250;BME280;1637;42.020;23.992;2023-01-20T01:40:29;91914.44;;;8.18;100.00
3250;BME280;1637;42.020;23.992;2023-01-20T01:42:56;91890.75;;;7.74;100.00
3250;BME280;1637;42.020;23.992;2023-01-20T01:45:26;91895.75;;;7.95;100.00
3250;BME280;1637;42.020;23.992;2023-01-20T01:47:58;91906.88;;;8.13;100.00
3250;BME280;1637;42.020;23.992;2023-01-20T01:50:33;91905.06;;;8.10;100.00
3250;BME280;1637;42.020;23.992;2023-01-20T01:53:02;91903.47;;;8.13;100.00
3250;BME280;1637;42.020;23.992;2023-01-20T01:55:33;91901.38;;;8.01;100.00
3250;BME280;1637;42.020;23.992;2023-01-20T01:58:02;91895.06;;;7.91;100.00
3250;BME280;1637;42.020;23.992;2023-01-20T02:00:32;91894.03;;;7.85;100.00
3250;BME280;1637;42.020;23.992;2023-01-20T02:02:59;91882.00;;;7.73;100.00
3250;BME280;1637;42.020;23.992;2023-01-20T02:05:28;91868.19;;;7.55;100.00
3250;BME280;1637;42.020;23.992;2023-01-20T02:07:56;91859.56;;;7.71;100.00
3250;BME280;1637;42.020;23.992;2023-01-20T02:10:24;91868.97;;;7.79;100.00
3250;BME280;1637;42.020;23.992;2023-01-20T02:12:50;91888.50;;;7.96;100.00
3250;BME280;1637;42.020;23.992;2023-01-20T02:15:22;91848.47;;;7.99;100.00
3250;BME280;1637;42.020;23.992;2023-01-20T02:18:15;91830.00;;;7.88;100.00
3250;BME280;1637;42.020;23.992;2023-01-20T02:24:00;91814.28;;;7.71;100.00
3250;BME280;1637;42.020;23.992;2023-01-20T02:26:44;91813.25;;;7.65;100.00
3250;BME280;1637;42.020;23.992;2023-01-20T02:32:36;91814.97;;;7.75;100.00
3250;BME280;1637;42.020;23.992;2023-01-20T02:35:08;91814.91;;;7.55;100.00
3250;BME280;1637;42.020;23.992;2023-01-20T02:37:45;91803.09;;;7.56;100.00
3250;BME280;1637;42.020;23.992;2023-01-20T02:40:19;91812.53;;;7.37;100.00
3250;BME280;1637;42.020;23.992;2023-01-20T02:42:56;91827.41;;;7.35;100.00
3250;BME280;1637;42.020;23.992;2023-01-20T02:45:27;91840.13;;;6.97;100.00
3250;BME280;1637;42.020;23.992;2023-01-20T02:48:04;91821.28;;;7.11;100.00
3250;BME280;1637;42.020;23.992;2023-01-20T02:50:39;91818.34;;;7.05;100.00
3250;BME280;1637;42.020;23.992;2023-01-20T02:53:10;91825.50;;;7.08;100.00
3250;BME280;1637;42.020;23.992;2023-01-20T02:55:40;91813.03;;;7.29;100.00
3250;BME280;1637;42.020;23.992;2023-01-20T02:58:12;91797.69;;;7.36;100.00
3250;BME280;1637;42.020;23.992;2023-01-20T03:00:45;91798.97;;;7.51;100.00
3250;BME280;1637;42.020;23.992;2023-01-20T03:03:18;91812.59;;;7.57;100.00
3250;BME280;1637;42.020;23.992;2023-01-20T03:05:51;91785.38;;;7.22;100.00
3250;BME280;1637;42.020;23.992;2023-01-20T03:08:20;91805.34;;;7.34;100.00
3250;BME280;1637;42.020;23.992;2023-01-20T03:10:49;91786.16;;;7.19;100.00
3250;BME280;1637;42.020;23.992;2023-01-20T03:13:20;91776.00;;;7.11;100.00
3250;BME280;1637;42.020;23.992;2023-01-20T03:15:55;91763.75;;;7.17;100.00
3250;BME280;1637;42.020;23.992;2023-01-20T03:18:27;91764.63;;;7.34;100.00
3250;BME280;1637;42.020;23.992;2023-01-20T03:20:56;91758.59;;;7.06;100.00
3250;BME280;1637;42.020;23.992;2023-01-20T03:23:24;91756.13;;;7.19;100.00
3250;BME280;1637;42.020;23.992;2023-01-20T03:25:51;91740.69;;;6.83;100.00
3250;BME280;1637;42.020;23.992;2023-01-20T03:28:19;91735.84;;;6.75;100.00
3250;BME280;1637;42.020;23.992;2023-01-20T03:30:46;91721.97;;;6.64;100.00
3250;BME280;1637;42.020;23.992;2023-01-20T03:33:13;91722.84;;;6.53;100.00
3250;BME280;1637;42.020;23.992;2023-01-20T03:35:43;91729.84;;;6.44;100.00
3250;BME280;1637;42.020;23.992;2023-01-20T03:38:10;91736.09;;;6.27;100.00
3250;BME280;1637;42.020;23.992;2023-01-20T03:40:42;91740.31;;;6.24;100.00
3250;BME280;1637;42.020;23.992;2023-01-20T03:43:15;91747.13;;;6.25;100.00
3250;BME280;1637;42.020;23.992;2023-01-20T03:45:52;91724.78;;;6.23;100.00
3250;BME280;1637;42.020;23.992;2023-01-20T03:48:28;91739.66;;;6.16;100.00
3250;BME280;1637;42.020;23.992;2023-01-20T03:51:04;91740.75;;;6.23;100.00
3250;BME280;1637;42.020;23.992;2023-01-20T03:53:37;91734.41;;;6.43;100.00
3250;BME280;1637;42.020;23.992;2023-01-20T03:56:14;91721.31;;;6.26;100.00
3250;BME280;1637;42.020;23.992;2023-01-20T03:58:45;91736.25;;;6.16;100.00
3250;BME280;1637;42.020;23.992;2023-01-20T04:01:16;91738.69;;;6.34;100.00
3250;BME280;1637;42.020;23.992;2023-01-20T04:03:46;91732.94;;;6.39;100.00
3250;BME280;1637;42.020;23.992;2023-01-20T04:06:17;91723.09;;;6.36;100.00
3250;BME280;1637;42.020;23.992;2023-01-20T04:08:47;91692.97;;;6.15;100.00
3250;BME280;1637;42.020;23.992;2023-01-20T04:11:16;91716.22;;;6.38;100.00
3250;BME280;1637;42.020;23.992;2023-01-20T04:13:43;91693.41;;;6.41;100.00
3250;BME280;1637;42.020;23.992;2023-01-20T04:16:12;91713.44;;;6.45;100.00
3250;BME280;1637;42.020;23.992;2023-01-20T04:18:42;91603.38;;;6.12;100.00
3250;BME280;1637;42.020;23.992;2023-01-20T04:21:12;91702.78;;;6.49;100.00
3250;BME280;1637;42.020;23.992;2023-01-20T04:23:45;91717.03;;;6.35;100.00
3250;BME280;1637;42.020;23.992;2023-01-20T04:26:15;91717.13;;;6.25;100.00
3250;BME280;1637;42.020;23.992;2023-01-20T04:28:42;91714.22;;;6.15;100.00
3250;BME280;1637;42.020;23.992;2023-01-20T04:31:09;91692.13;;;6.22;100.00
3250;BME280;1637;42.020;23.992;2023-01-20T04:33:36;91685.66;;;6.23;100.00
3250;BME280;1637;42.020;23.992;2023-01-20T04:36:03;91684.63;;;6.44;100.00
3250;BME280;1637;42.020;23.992;2023-01-20T04:38:30;91663.09;;;6.35;100.00
3250;BME280;1637;42.020;23.992;2023-01-20T04:40:58;91665.47;;;6.52;100.00
3250;BME280;1637;42.020;23.992;2023-01-20T04:43:25;91666.03;;;6.67;100.00
3250;BME280;1637;42.020;23.992;2023-01-20T04:45:52;91668.75;;;6.64;100.00
3250;BME280;1637;42.020;23.992;2023-01-20T04:48:19;91660.56;;;6.51;100.00
3250;BME280;1637;42.020;23.992;2023-01-20T04:50:45;91651.75;;;6.81;100.00
3250;BME280;1637;42.020;23.992;2023-01-20T04:53:13;91645.19;;;7.09;100.00
3250;BME280;1637;42.020;23.992;2023-01-20T04:55:43;91634.00;;;6.74;100.00
3250;BME280;1637;42.020;23.992;2023-01-20T04:58:12;91614.31;;;6.68;100.00
3250;BME280;1637;42.020;23.992;2023-01-20T05:00:39;91601.34;;;7.17;100.00
3250;BME280;1637;42.020;23.992;2023-01-20T05:03:05;91597.97;;;7.13;100.00
3250;BME280;1637;42.020;23.992;2023-01-20T05:05:32;91616.50;;;7.20;100.00
3250;BME280;1637;42.020;23.992;2023-01-20T05:07:59;91627.97;;;6.94;100.00
3250;BME280;1637;42.020;23.992;2023-01-20T05:10:27;91628.44;;;6.88;100.00
3250;BME280;1637;42.020;23.992;2023-01-20T05:12:53;91645.34;;;6.78;100.00
3250;BME280;1637;42.020;23.992;2023-01-20T05:15:22;91655.75;;;6.42;100.00
3250;BME280;1637;42.020;23.992;2023-01-20T05:17:48;91638.53;;;6.24;100.00
3250;BME280;1637;42.020;23.992;2023-01-20T05:20:16;91631.09;;;6.65;100.00
3250;BME280;1637;42.020;23.992;2023-01-20T05:22:43;91635.91;;;6.47;100.00
3250;BME280;1637;42.020;23.992;2023-01-20T05:25:10;91636.44;;;8.11;100.00
3250;BME280;1637;42.020;23.992;2023-01-20T05:27:37;91614.66;;;9.58;100.00
3250;BME280;1637;42.020;23.992;2023-01-20T05:30:05;91643.25;;;9.45;100.00
3250;BME280;1637;42.020;23.992;2023-01-20T05:32:33;91638.47;;;9.08;100.00
3250;BME280;1637;42.020;23.992;2023-01-20T05:35:00;91633.47;;;8.61;100.00
3250;BME280;1637;42.020;23.992;2023-01-20T05:37:27;91612.06;;;8.28;100.00
3250;BME280;1637;42.020;23.992;2023-01-20T05:39:53;91602.31;;;7.66;100.00
3250;BME280;1637;42.020;23.992;2023-01-20T05:42:20;91609.69;;;7.58;100.00
3250;BME280;1637;42.020;23.992;2023-01-20T05:44:47;91620.34;;;7.58;100.00
3250;BME280;1637;42.020;23.992;2023-01-20T05:47:14;91619.38;;;7.29;100.00
3250;BME280;1637;42.020;23.992;2023-01-20T05:49:42;91629.78;;;7.00;100.00
3250;BME280;1637;42.020;23.992;2023-01-20T05:52:09;91645.03;;;6.73;100.00
3250;BME280;1637;42.020;23.992;2023-01-20T05:54:35;91631.84;;;6.66;100.00
3250;BME280;1637;42.020;23.992;2023-01-20T05:57:02;91599.44;;;6.47;100.00
3250;BME280;1637;42.020;23.992;2023-01-20T05:59:30;91634.91;;;6.64;100.00
3250;BME280;1637;42.020;23.992;2023-01-20T06:01:56;91627.41;;;6.82;100.00
3250;BME280;1637;42.020;23.992;2023-01-20T06:04:23;91622.94;;;6.99;100.00
3250;BME280;1637;42.020;23.992;2023-01-20T06:06:51;91629.81;;;6.97;100.00
3250;BME280;1637;42.020;23.992;2023-01-20T06:09:18;91627.06;;;7.04;100.00
3250;BME280;1637;42.020;23.992;2023-01-20T06:11:45;91628.38;;;7.15;100.00
3250;BME280;1637;42.020;23.992;2023-01-20T06:14:12;91633.94;;;7.01;100.00
3250;BME280;1637;42.020;23.992;2023-01-20T06:16:39;91616.97;;;6.92;100.00
3250;BME280;1637;42.020;23.992;2023-01-20T06:19:06;91605.72;;;7.27;100.00
3250;BME280;1637;42.020;23.992;2023-01-20T06:21:33;91620.25;;;7.22;100.00
3250;BME280;1637;42.020;23.992;2023-01-20T06:24:01;91602.16;;;6.90;100.00
3250;BME280;1637;42.020;23.992;2023-01-20T06:26:28;91590.19;;;7.02;100.00
3250;BME280;1637;42.020;23.992;2023-01-20T06:28:57;91559.34;;;7.05;100.00
3250;BME280;1637;42.020;23.992;2023-01-20T06:31:24;91589.09;;;7.00;100.00
3250;BME280;1637;42.020;23.992;2023-01-20T06:33:52;91606.56;;;7.01;100.00
3250;BME280;1637;42.020;23.992;2023-01-20T06:36:19;91617.31;;;6.70;100.00
3250;BME280;1637;42.020;23.992;2023-01-20T06:38:46;91623.41;;;6.71;100.00
3250;BME280;1637;42.020;23.992;2023-01-20T06:41:17;91612.06;;;6.90;100.00
3250;BME280;1637;42.020;23.992;2023-01-20T06:43:44;91630.81;;;7.06;100.00
3250;BME280;1637;42.020;23.992;2023-01-20T06:46:13;91655.56;;;7.27;100.00
3250;BME280;1637;42.020;23.992;2023-01-20T06:48:40;91629.25;;;7.29;100.00
3250;BME280;1637;42.020;23.992;2023-01-20T06:51:09;91644.03;;;7.10;100.00
3250;BME280;1637;42.020;23.992;2023-01-20T06:53:36;91648.28;;;6.84;100.00
3250;BME280;1637;42.020;23.992;2023-01-20T06:56:04;91679.13;;;6.81;100.00
3250;BME280;1637;42.020;23.992;2023-01-20T06:58:32;91724.91;;;6.69;100.00
3250;BME280;1637;42.020;23.992;2023-01-20T07:01:04;91744.00;;;6.64;100.00
3250;BME280;1637;42.020;23.992;2023-01-20T07:03:31;91740.22;;;6.62;100.00
3250;BME280;1637;42.020;23.992;2023-01-20T07:05:59;91754.38;;;6.55;100.00
3250;BME280;1637;42.020;23.992;2023-01-20T07:08:27;91740.63;;;6.60;100.00
3250;BME280;1637;42.020;23.992;2023-01-20T07:10:54;91732.66;;;6.60;100.00
3250;BME280;1637;42.020;23.992;2023-01-20T07:13:21;91753.38;;;6.72;100.00
3250;BME280;1637;42.020;23.992;2023-01-20T07:15:49;91718.78;;;6.72;100.00
3250;BME280;1637;42.020;23.992;2023-01-20T07:18:16;91702.91;;;6.65;100.00
3250;BME280;1637;42.020;23.992;2023-01-20T07:20:42;91708.16;;;6.72;100.00
3250;BME280;1637;42.020;23.992;2023-01-20T07:23:09;91719.91;;;6.75;100.00
3250;BME280;1637;42.020;23.992;2023-01-20T07:25:36;91713.91;;;6.67;100.00
3250;BME280;1637;42.020;23.992;2023-01-20T07:28:04;91717.22;;;6.48;100.00
3250;BME280;1637;42.020;23.992;2023-01-20T07:30:31;91731.78;;;6.67;100.00
3250;BME280;1637;42.020;23.992;2023-01-20T07:32:59;91726.31;;;6.77;100.00
3250;BME280;1637;42.020;23.992;2023-01-20T07:35:26;91719.78;;;6.55;100.00
3250;BME280;1637;42.020;23.992;2023-01-20T07:50:20;91729.13;;;6.94;100.00
3250;BME280;1637;42.020;23.992;2023-01-20T07:52:46;91724.13;;;7.22;100.00
3250;BME280;1637;42.020;23.992;2023-01-20T07:55:13;91712.44;;;6.89;100.00
3250;BME280;1637;42.020;23.992;2023-01-20T07:57:40;91689.91;;;6.98;100.00
3250;BME280;1637;42.020;23.992;2023-01-20T08:00:08;91691.09;;;6.93;100.00
3250;BME280;1637;42.020;23.992;2023-01-20T08:02:36;91684.91;;;6.76;100.00
3250;BME280;1637;42.020;23.992;2023-01-20T08:05:03;91680.25;;;6.57;100.00
3250;BME280;1637;42.020;23.992;2023-01-20T08:07:31;91682.94;;;6.53;100.00
3250;BME280;1637;42.020;23.992;2023-01-20T08:09:59;91680.25;;;6.57;100.00
3250;BME280;1637;42.020;23.992;2023-01-20T08:12:27;91687.38;;;6.87;100.00
3250;BME280;1637;42.020;23.992;2023-01-20T08:14:54;91690.09;;;6.60;100.00
3250;BME280;1637;42.020;23.992;2023-01-20T08:17:21;91680.34;;;6.77;100.00
3250;BME280;1637;42.020;23.992;2023-01-20T08:19:48;91671.53;;;6.80;100.00
3250;BME280;1637;42.020;23.992;2023-01-20T08:22:15;91608.41;;;6.34;100.00
3250;BME280;1637;42.020;23.992;2023-01-20T08:24:43;91627.28;;;6.89;100.00
3250;BME280;1637;42.020;23.992;2023-01-20T08:27:10;91623.19;;;6.85;100.00
3250;BME280;1637;42.020;23.992;2023-01-20T08:29:36;91627.63;;;6.92;100.00
3250;BME280;1637;42.020;23.992;2023-01-20T08:32:03;91630.63;;;6.94;100.00
3250;BME280;1637;42.020;23.992;2023-01-20T08:34:30;91622.88;;;6.79;100.00
3250;BME280;1637;42.020;23.992;2023-01-20T08:36:57;91642.78;;;6.95;100.00
3250;BME280;1637;42.020;23.992;2023-01-20T08:39:24;91651.47;;;6.99;100.00
3250;BME280;1637;42.020;23.992;2023-01-20T08:41:52;91655.00;;;6.92;100.00
3250;BME280;1637;42.020;23.992;2023-01-20T08:44:19;91652.88;;;6.83;100.00
3250;BME280;1637;42.020;23.992;2023-01-20T08:46:46;91648.63;;;6.86;100.00
3250;BME280;1637;42.020;23.992;2023-01-20T08:49:16;91637.84;;;7.16;100.00
3250;BME280;1637;42.020;23.992;2023-01-20T08:51:44;91636.94;;;7.46;100.00
3250;BME280;1637;42.020;23.992;2023-01-20T08:54:11;91631.53;;;7.50;100.00
3250;BME280;1637;42.020;23.992;2023-01-20T08:56:39;91640.34;;;7.27;100.00
3250;BME280;1637;42.020;23.992;2023-01-20T08:59:07;91633.38;;;7.33;100.00
3250;BME280;1637;42.020;23.992;2023-01-20T09:01:34;91631.97;;;7.68;100.00
3250;BME280;1637;42.020;23.992;2023-01-20T09:04:02;91623.41;;;7.77;100.00
3250;BME280;1637;42.020;23.992;2023-01-20T09:06:29;91627.53;;;7.81;100.00
3250;BME280;1637;42.020;23.992;2023-01-20T09:08:56;91621.50;;;7.77;100.00
3250;BME280;1637;42.020;23.992;2023-01-20T09:11:23;91604.75;;;7.97;100.00
3250;BME280;1637;42.020;23.992;2023-01-20T09:13:51;91589.50;;;7.97;100.00
3250;BME280;1637;42.020;23.992;2023-01-20T09:16:19;91567.72;;;7.82;100.00
3250;BME280;1637;42.020;23.992;2023-01-20T09:18:46;91589.09;;;8.35;100.00
3250;BME280;1637;42.020;23.992;2023-01-20T09:21:12;91574.38;;;9.08;100.00
3250;BME280;1637;42.020;23.992;2023-01-20T09:23:40;91537.38;;;8.77;100.00
3250;BME280;1637;42.020;23.992;2023-01-20T09:26:08;91567.91;;;8.92;100.00
3250;BME280;1637;42.020;23.992;2023-01-20T09:28:35;91555.09;;;8.71;100.00
3250;BME280;1637;42.020;23.992;2023-01-20T09:31:04;91562.28;;;8.22;100.00
3250;BME280;1637;42.020;23.992;2023-01-20T09:33:34;91603.81;;;7.87;100.00
3250;BME280;1637;42.020;23.992;2023-01-20T09:36:03;91553.47;;;7.53;100.00
3250;BME280;1637;42.020;23.992;2023-01-20T09:38:30;91544.72;;;7.52;100.00
3250;BME280;1637;42.020;23.992;2023-01-20T09:41:17;91536.41;;;7.31;100.00
3250;BME280;1637;42.020;23.992;2023-01-20T09:44:12;91517.91;;;7.43;100.00
3250;BME280;1637;42.020;23.992;2023-01-20T09:46:54;91515.38;;;8.41;100.00
3250;BME280;1637;42.020;23.992;2023-01-20T09:49:54;91517.53;;;9.07;96.00
3250;BME280;1637;42.020;23.992;2023-01-20T09:52:42;91513.81;;;9.46;94.28
3250;BME280;1637;42.020;23.992;2023-01-20T09:55:32;91502.00;;;9.85;90.78
3250;BME280;1637;42.020;23.992;2023-01-20T09:58:12;91501.53;;;11.54;83.49
3250;BME280;1637;42.020;23.992;2023-01-20T10:00:43;91480.41;;;9.92;86.35
3250;BME280;1637;42.020;23.992;2023-01-20T10:03:15;91478.31;;;9.04;94.32
3250;BME280;1637;42.020;23.992;2023-01-20T10:05:47;91485.94;;;8.60;95.23
3250;BME280;1637;42.020;23.992;2023-01-20T10:08:19;91496.50;;;8.80;98.79
3250;BME280;1637;42.020;23.992;2023-01-20T10:10:50;91490.34;;;8.67;98.33
3250;BME280;1637;42.020;23.992;2023-01-20T10:13:23;91485.25;;;8.73;100.00
3250;BME280;1637;42.020;23.992;2023-01-20T10:15:53;91472.84;;;8.66;99.10
3250;BME280;1637;42.020;23.992;2023-01-20T10:18:24;91462.41;;;9.01;100.00
3250;BME280;1637;42.020;23.992;2023-01-20T10:20:58;91470.91;;;9.24;100.00
3250;BME280;1637;42.020;23.992;2023-01-20T10:23:29;91464.94;;;9.33;100.00
3250;BME280;1637;42.020;23.992;2023-01-20T10:26:03;91443.69;;;9.42;100.00
3250;BME280;1637;42.020;23.992;2023-01-20T10:28:36;91421.22;;;9.27;99.43
3250;BME280;1637;42.020;23.992;2023-01-20T10:31:04;91434.06;;;9.32;94.16
3250;BME280;1637;42.020;23.992;2023-01-20T10:33:34;91430.53;;;9.48;92.72
3250;BME280;1637;42.020;23.992;2023-01-20T10:36:09;91415.88;;;9.78;96.73
3250;BME280;1637;42.020;23.992;2023-01-20T10:38:44;91418.56;;;9.78;91.49
3250;BME280;1637;42.020;23.992;2023-01-20T10:41:16;91407.34;;;9.45;92.68
3250;BME280;1637;42.020;23.992;2023-01-20T10:43:45;91408.09;;;9.33;93.75
3250;BME280;1637;42.020;23.992;2023-01-20T10:46:21;91407.47;;;9.54;92.67
3250;BME280;1637;42.020;23.992;2023-01-20T10:52:01;91404.88;;;9.38;90.20
3250;BME280;1637;42.020;23.992;2023-01-20T10:54:37;91411.56;;;9.17;88.73
3250;BME280;1637;42.020;23.992;2023-01-20T10:57:11;91421.75;;;9.22;89.62
3250;BME280;1637;42.020;23.992;2023-01-20T10:59:41;91408.63;;;9.40;87.90
3250;BME280;1637;42.020;23.992;2023-01-20T11:02:14;91406.78;;;9.37;86.30
3250;BME280;1637;42.020;23.992;2023-01-20T11:04:43;91413.34;;;9.49;84.98
3250;BME280;1637;42.020;23.992;2023-01-20T11:07:15;91404.00;;;9.79;86.93
3250;BME280;1637;42.020;23.992;2023-01-20T11:09:43;91395.03;;;9.85;88.87
3250;BME280;1637;42.020;23.992;2023-01-20T11:12:15;91388.94;;;9.85;92.07
3250;BME280;1637;42.020;23.992;2023-01-20T11:14:42;91391.44;;;9.54;91.36
3250;BME280;1637;42.020;23.992;2023-01-20T11:17:15;91395.38;;;9.62;92.54
3250;BME280;1637;42.020;23.992;2023-01-20T11:19:47;91402.19;;;9.38;92.13
3250;BME280;1637;42.020;23.992;2023-01-20T11:22:19;91411.50;;;9.33;91.75
3250;BME280;1637;42.020;23.992;2023-01-20T11:24:52;91413.22;;;9.40;92.68
3250;BME280;1637;42.020;23.992;2023-01-20T11:27:21;91447.59;;;9.25;94.60
3250;BME280;1637;42.020;23.992;2023-01-20T11:29:54;91418.88;;;9.29;96.06
3250;BME280;1637;42.020;23.992;2023-01-20T11:32:27;91423.97;;;9.11;97.25
3250;BME280;1637;42.020;23.992;2023-01-20T11:34:55;91426.28;;;8.96;95.47
3250;BME280;1637;42.020;23.992;2023-01-20T11:37:24;91341.31;;;8.37;95.23
3250;BME280;1637;42.020;23.992;2023-01-20T11:40:15;91383.50;;;8.71;95.30
3250;BME280;1637;42.020;23.992;2023-01-20T11:42:44;91384.88;;;8.75;98.69
3250;BME280;1637;42.020;23.992;2023-01-20T11:45:28;91383.75;;;8.89;93.76
3250;BME280;1637;42.020;23.992;2023-01-20T11:48:15;91381.56;;;9.13;95.71
3250;BME280;1637;42.020;23.992;2023-01-20T11:50:45;91423.47;;;9.41;97.59
3250;BME280;1637;42.020;23.992;2023-01-20T11:53:21;91385.13;;;9.35;100.00
3250;BME280;1637;42.020;23.992;2023-01-20T11:55:53;91390.53;;;9.19;100.00
3250;BME280;1637;42.020;23.992;2023-01-20T11:58:22;91402.28;;;9.21;100.00
3250;BME280;1637;42.020;23.992;2023-01-20T12:00:51;91395.81;;;9.73;100.00
3250;BME280;1637;42.020;23.992;2023-01-20T12:03:43;91342.56;;;9.53;98.12
3250;BME280;1637;42.020;23.992;2023-01-20T12:06:17;91370.16;;;10.23;97.91
3250;BME280;1637;42.020;23.992;2023-01-20T12:08:49;91335.94;;;10.05;93.39
3250;BME280;1637;42.020;23.992;2023-01-20T12:11:21;91380.31;;;10.62;93.83
3250;BME280;1637;42.020;23.992;2023-01-20T12:14:04;91366.69;;;10.70;89.46
3250;BME280;1637;42.020;23.992;2023-01-20T12:17:18;91376.56;;;10.82;85.62
3250;BME280;1637;42.020;23.992;2023-01-20T12:19:56;91351.44;;;10.23;78.39
3250;BME280;1637;42.020;23.992;2023-01-20T12:22:30;91375.66;;;10.97;78.85
3250;BME280;1637;42.020;23.992;2023-01-20T12:25:03;91377.94;;;11.08;79.87
3250;BME280;1637;42.020;23.992;2023-01-20T12:27:34;91369.91;;;10.64;77.81
3250;BME280;1637;42.020;23.992;2023-01-20T12:30:09;91387.13;;;10.42;79.79
3250;BME280;1637;42.020;23.992;2023-01-20T12:32:40;91389.09;;;10.63;81.15
3250;BME280;1637;42.020;23.992;2023-01-20T12:35:12;91362.88;;;10.36;80.29
3250;BME280;1637;42.020;23.992;2023-01-20T12:37:43;91381.44;;;10.52;81.83
3250;BME280;1637;42.020;23.992;2023-01-20T12:40:21;91389.94;;;10.60;82.30
3250;BME280;1637;42.020;23.992;2023-01-20T12:43:23;91387.19;;;10.29;84.19
3250;BME280;1637;42.020;23.992;2023-01-20T12:46:13;91377.16;;;9.82;88.72
3250;BME280;1637;42.020;23.992;2023-01-20T12:48:48;91393.44;;;9.24;91.52
3250;BME280;1637;42.020;23.992;2023-01-20T12:51:25;91406.78;;;9.12;89.34
3250;BME280;1637;42.020;23.992;2023-01-20T12:56:49;91396.63;;;9.07;94.42
3250;BME280;1637;42.020;23.992;2023-01-20T12:59:31;91416.16;;;8.75;95.49
3250;BME280;1637;42.020;23.992;2023-01-20T13:02:23;91412.47;;;8.56;99.31
3250;BME280;1637;42.020;23.992;2023-01-20T13:05:17;91393.00;;;8.43;94.59
3250;BME280;1637;42.020;23.992;2023-01-20T13:08:01;91394.59;;;8.40;94.83
3250;BME280;1637;42.020;23.992;2023-01-20T13:10:45;91410.25;;;8.38;100.00
3250;BME280;1637;42.020;23.992;2023-01-20T13:13:23;91418.19;;;8.42;100.00
3250;BME280;1637;42.020;23.992;2023-01-20T13:15:57;91417.09;;;8.39;100.00
3250;BME280;1637;42.020;23.992;2023-01-20T13:18:33;91424.50;;;8.32;100.00
3250;BME280;1637;42.020;23.992;2023-01-20T13:21:03;91423.00;;;8.47;100.00
3250;BME280;1637;42.020;23.992;2023-01-20T13:23:32;91418.97;;;8.55;100.00
3250;BME280;1637;42.020;23.992;2023-01-20T13:26:00;91428.44;;;8.43;99.98
3250;BME280;1637;42.020;23.992;2023-01-20T13:28:31;91435.28;;;8.44;95.93
3250;BME280;1637;42.020;23.992;2023-01-20T13:30:59;91428.53;;;8.23;99.52
3250;BME280;1637;42.020;23.992;2023-01-20T13:33:37;91430.09;;;8.37;97.79
3250;BME280;1637;42.020;23.992;2023-01-20T13:36:15;91441.69;;;8.31;99.15
3250;BME280;1637;42.020;23.992;2023-01-20T13:38:43;91441.84;;;8.40;93.53
3250;BME280;1637;42.020;23.992;2023-01-20T13:41:10;91444.28;;;8.18;93.24
3250;BME280;1637;42.020;23.992;2023-01-20T13:43:56;91461.59;;;8.26;91.58
3250;BME280;1637;42.020;23.992;2023-01-20T13:46:43;91456.69;;;8.08;93.82
3250;BME280;1637;42.020;23.992;2023-01-20T13:49:22;91465.44;;;8.09;99.75
3250;BME280;1637;42.020;23.992;2023-01-20T13:51:50;91470.19;;;7.85;99.55
3250;BME280;1637;42.020;23.992;2023-01-20T13:54:36;91469.25;;;7.75;100.00
3250;BME280;1637;42.020;23.992;2023-01-20T13:57:33;91463.66;;;7.70;100.00